Time;durP1;ratioP1;P1;durP2;ratioP2;P2;SDS_P1;SDS_P2;PMS_P1;PMS_P2;Temp;Humidity;BMP_temperature;BMP_pressure;BME280_temperature;BME280_humidity;BME280_pressure;Samples;Min_cycle;Max_cycle;Signal;HPM_P1;HPM_P2
2020/12/01 00:03:35;;;;;;;21.90;11.23;;;;;;;4.71;89.13;100099.06;8894052;32;21882;-74
2020/12/01 00:08:39;;;;;;;19.35;8.38;;;;;;;4.67;88.83;100093.06;8893962;32;20436;-74
2020/12/01 00:13:42;;;;;;;23.87;10.83;;;;;;;4.67;89.13;100098.34;8894630;32;20430;-74
2020/12/01 00:18:45;;;;;;;17.53;10.03;;;;;;;4.68;89.28;100088.63;8893801;32;20182;-74
2020/12/01 00:23:48;;;;;;;17.20;9.03;;;;;;;4.78;89.14;100079.31;8894050;32;20657;-74
2020/12/01 00:28:50;;;;;;;17.57;9.10;;;;;;;4.71;89.52;100072.59;8899167;32;20142;-74
2020/12/01 00:33:53;;;;;;;16.23;8.23;;;;;;;4.77;89.48;100058.19;8899207;32;20181;-74
2020/12/01 00:38:56;;;;;;;14.80;7.27;;;;;;;4.79;89.27;100066.94;8902869;32;20416;-74
2020/12/01 00:43:58;;;;;;;16.67;7.63;;;;;;;4.90;88.78;100064.63;8904031;32;20188;-75
2020/12/01 00:49:01;;;;;;;16.03;8.40;;;;;;;4.83;89.08;100050.84;8902377;32;20424;-75
2020/12/01 00:54:07;;;;;;;20.00;9.03;;;;;;;4.85;88.91;100051.63;8862036;32;21652;-75
2020/12/01 00:59:09;;;;;;;15.67;8.73;;;;;;;4.98;88.87;100046.56;8872516;32;20150;-74
2020/12/01 01:04:21;;;;;;;17.73;9.60;;;;;;;5.00;88.82;100046.50;8872481;32;20998;-74
2020/12/01 01:09:23;;;;;;;12.60;7.55;;;;;;;5.05;88.47;100033.91;8902642;32;20169;-74
2020/12/01 01:14:25;;;;;;;15.47;8.97;;;;;;;4.95;89.01;100027.34;8918027;32;20161;-74
2020/12/01 01:19:28;;;;;;;12.70;7.03;;;;;;;4.99;88.95;100020.94;8897418;32;20222;-74
2020/12/01 01:24:30;;;;;;;9.37;5.33;;;;;;;4.97;88.69;100025.50;8897406;32;20177;-74
2020/12/01 01:29:33;;;;;;;11.73;6.30;;;;;;;5.05;88.61;100018.88;8897223;32;20317;-73
2020/12/01 01:34:36;;;;;;;13.33;7.97;;;;;;;5.09;88.67;100033.66;8897104;32;21245;-75
2020/12/01 01:39:38;;;;;;;15.02;8.60;;;;;;;5.06;88.66;100031.16;8896769;32;20547;-75
2020/12/01 01:44:41;;;;;;;14.97;8.43;;;;;;;5.09;88.45;100038.09;8897128;32;20142;-75
2020/12/01 01:49:48;;;;;;;17.10;8.53;;;;;;;5.08;88.82;100037.25;8897108;32;20138;-75
2020/12/01 01:54:57;;;;;;;20.53;9.37;;;;;;;5.20;88.45;100030.47;8861414;32;21474;-73
2020/12/01 02:00:00;;;;;;;18.45;8.88;;;;;;;5.19;88.32;100019.97;8835935;33;20282;-74
2020/12/01 02:05:03;;;;;;;20.03;9.57;;;;;;;5.12;88.62;100028.22;8835870;33;20173;-74
2020/12/01 02:10:06;;;;;;;14.93;10.05;;;;;;;5.06;88.74;100014.44;8835984;33;20695;-74
2020/12/01 02:15:10;;;;;;;17.70;11.07;;;;;;;5.20;88.41;100008.44;8835892;33;21629;-74
2020/12/01 02:20:17;;;;;;;14.43;7.13;;;;;;;5.10;88.45;100006.25;8847248;32;20732;-74
2020/12/01 02:25:21;;;;;;;15.40;9.02;;;;;;;5.15;88.44;100005.16;8835734;33;20146;-74
2020/12/01 02:30:24;;;;;;;15.82;9.02;;;;;;;5.18;88.24;100002.34;8835706;33;20181;-74
2020/12/01 02:35:26;;;;;;;20.23;10.27;;;;;;;5.17;88.72;100003.31;8835902;33;20235;-74
2020/12/01 02:40:29;;;;;;;17.67;10.25;;;;;;;5.09;88.60;99996.59;8835135;33;20504;-74
2020/12/01 02:45:32;;;;;;;15.23;9.30;;;;;;;5.15;88.50;100010.47;8835213;33;20153;-74
2020/12/01 02:50:34;;;;;;;20.97;10.83;;;;;;;5.26;88.28;100005.47;8834174;33;20166;-74
2020/12/01 02:55:39;;;;;;;18.98;9.70;;;;;;;5.07;88.58;100001.13;8834672;33;20186;-74
2020/12/01 03:00:43;;;;;;;19.63;10.10;;;;;;;5.12;88.49;99998.22;8834339;33;20208;-74
2020/12/01 03:05:46;;;;;;;19.90;10.38;;;;;;;5.21;88.43;100000.44;8834555;33;20317;-74
2020/12/01 03:10:48;;;;;;;19.67;9.87;;;;;;;5.18;88.54;99989.13;8834385;33;20143;-75
2020/12/01 03:15:54;;;;;;;21.92;11.45;;;;;;;5.20;88.77;99996.06;8834740;33;20177;-74
2020/12/01 03:20:56;;;;;;;21.33;11.70;;;;;;;5.16;89.03;99994.50;8833505;33;20196;-76
2020/12/01 03:25:58;;;;;;;21.52;10.68;;;;;;;5.20;88.82;99997.84;8833866;33;20914;-76
2020/12/01 03:31:01;;;;;;;19.30;10.53;;;;;;;5.16;88.81;99994.50;8833660;33;20434;-74
2020/12/01 03:36:04;;;;;;;17.95;10.40;;;;;;;5.15;88.86;99991.91;8833779;33;22064;-75
2020/12/01 03:41:06;;;;;;;18.50;9.60;;;;;;;5.30;88.58;99992.00;8833645;33;20262;-75
2020/12/01 03:46:10;;;;;;;14.63;8.63;;;;;;;5.17;89.33;99998.84;8833701;33;20184;-75
2020/12/01 03:51:12;;;;;;;17.55;8.65;;;;;;;5.17;88.96;99992.72;8833946;33;20822;-74
2020/12/01 03:56:15;;;;;;;16.92;7.60;;;;;;;5.33;88.89;100001.59;8833382;33;20623;-75
2020/12/01 04:01:18;;;;;;;20.27;10.07;;;;;;;5.34;89.07;99990.03;8838405;33;20185;-73
2020/12/01 04:06:20;;;;;;;16.70;8.87;;;;;;;5.42;88.67;99989.66;8838819;33;20190;-75
2020/12/01 04:11:24;;;;;;;16.48;9.32;;;;;;;5.30;88.86;99981.41;8839017;33;20361;-75
2020/12/01 04:16:27;;;;;;;18.10;8.80;;;;;;;5.31;89.43;99990.22;8838252;33;20182;-74
2020/12/01 04:21:29;;;;;;;19.90;10.02;;;;;;;5.37;89.02;99989.03;8838506;33;20219;-74
2020/12/01 04:26:31;;;;;;;15.52;8.55;;;;;;;5.39;88.84;99987.16;8838360;33;20227;-76
2020/12/01 04:31:34;;;;;;;21.33;9.30;;;;;;;5.35;89.00;99984.69;8838183;33;20172;-75
2020/12/01 04:36:37;;;;;;;15.93;9.13;;;;;;;5.32;89.09;99995.44;8837814;33;20131;-75
2020/12/01 04:41:39;;;;;;;16.20;8.60;;;;;;;5.27;89.22;99984.22;8837609;33;20142;-76
2020/12/01 04:46:44;;;;;;;17.03;8.47;;;;;;;5.26;89.49;99994.88;8837546;33;20314;-75
2020/12/01 04:52:12;;;;;;;8.13;5.37;;;;;;;5.19;89.53;99993.50;8837984;33;20173;-76
2020/12/01 04:57:45;;;;;;;14.73;7.67;;;;;;;5.36;88.91;100009.38;8837622;33;20206;-75
2020/12/01 05:03:22;;;;;;;12.20;6.82;;;;;;;5.25;89.17;100003.78;8898149;32;20177;-75
2020/12/01 05:08:45;;;;;;;14.27;6.83;;;;;;;5.28;89.07;100007.09;8848084;32;20247;-75
2020/12/01 05:13:58;;;;;;;15.73;7.30;;;;;;;5.33;88.93;100005.09;8833076;33;20217;-75
2020/12/01 05:19:01;;;;;;;14.73;5.87;;;;;;;5.24;89.41;100010.88;8822269;32;20852;-75
2020/12/01 05:24:03;;;;;;;14.43;7.43;;;;;;;5.25;89.15;100017.88;8836632;32;20239;-75
2020/12/01 05:29:05;;;;;;;12.13;6.38;;;;;;;5.37;89.14;100005.78;8836723;32;20246;-74
2020/12/01 05:34:19;;;;;;;14.17;6.77;;;;;;;5.43;88.77;100016.09;8837410;32;20194;-73
2020/12/01 05:39:24;;;;;;;13.00;6.25;;;;;;;5.46;88.49;100023.88;8836833;32;20150;-72
2020/12/01 05:44:29;;;;;;;13.63;7.40;;;;;;;5.46;89.09;100021.22;8836415;32;20247;-73
2020/12/01 05:49:42;;;;;;;13.25;6.50;;;;;;;5.45;88.58;100024.78;8837035;32;20284;-73
2020/12/01 05:54:48;;;;;;;16.65;7.50;;;;;;;5.39;88.74;100034.84;8836323;32;20195;-73
2020/12/01 05:59:56;;;;;;;17.10;8.30;;;;;;;5.39;89.08;100030.41;8836122;32;20188;-73
2020/12/01 06:05:00;;;;;;;15.77;8.60;;;;;;;5.51;88.88;100037.75;8844891;32;20741;-74
2020/12/01 06:10:29;;;;;;;17.90;8.73;;;;;;;5.51;88.83;100050.09;8842996;32;20208;-73
2020/12/01 06:15:35;;;;;;;22.75;9.93;;;;;;;5.52;88.84;100041.25;8839206;32;20398;-73
2020/12/01 06:20:44;;;;;;;15.27;9.02;;;;;;;5.48;88.92;100048.47;8835797;32;20590;-73
2020/12/01 06:26:11;;;;;;;21.02;10.25;;;;;;;5.53;88.73;100050.91;8835281;32;20173;-73
2020/12/01 06:31:30;;;;;;;19.05;9.55;;;;;;;5.53;88.71;100054.41;8837342;32;20190;-72
2020/12/01 06:37:12;;;;;;;23.08;11.05;;;;;;;5.54;88.71;100057.94;8838374;32;20158;-73
2020/12/01 06:42:21;;;;;;;26.83;10.88;;;;;;;5.54;88.93;100060.59;8834639;32;20481;-72
2020/12/01 06:47:31;;;;;;;22.38;10.02;;;;;;;5.68;88.75;100063.38;8835205;32;20480;-72
2020/12/01 06:52:34;;;;;;;23.00;11.00;;;;;;;5.69;88.72;100061.56;8835734;32;20182;-73
2020/12/01 06:57:37;;;;;;;24.10;10.77;;;;;;;5.68;88.81;100073.13;8834706;32;20184;-72
2020/12/01 07:02:40;;;;;;;22.83;10.35;;;;;;;5.65;88.76;100079.44;8835012;32;20421;-72
2020/12/01 07:07:45;;;;;;;25.23;10.77;;;;;;;5.68;88.71;100083.72;8836473;32;20182;-72
2020/12/01 07:12:54;;;;;;;19.88;8.98;;;;;;;5.69;88.52;100080.97;8837781;32;20182;-72
2020/12/01 07:18:04;;;;;;;21.02;9.55;;;;;;;5.77;88.63;100088.53;8834348;32;20206;-72
2020/12/01 07:23:33;;;;;;;23.42;10.60;;;;;;;5.78;88.60;100091.09;8834511;32;20177;-73
2020/12/01 07:28:41;;;;;;;17.40;8.77;;;;;;;5.90;88.53;100104.69;8826380;32;20208;-72
2020/12/01 07:33:54;;;;;;;28.02;12.40;;;;;;;6.00;88.54;100109.44;8834591;32;20142;-72
2020/12/01 07:39:14;;;;;;;28.92;12.13;;;;;;;5.84;88.53;100115.56;8834350;32;20162;-73
2020/12/01 07:44:21;;;;;;;25.30;11.32;;;;;;;5.86;88.37;100113.72;8834955;32;20870;-72
2020/12/01 07:49:27;;;;;;;22.95;11.05;;;;;;;5.84;88.79;100120.88;8834828;32;20150;-72
2020/12/01 07:54:33;;;;;;;23.08;10.85;;;;;;;5.74;89.18;100123.16;8833904;32;20195;-72
2020/12/01 07:59:41;;;;;;;26.65;12.10;;;;;;;5.83;89.14;100130.63;8833591;32;20691;-73
2020/12/01 08:04:44;;;;;;;22.98;10.52;;;;;;;5.84;89.32;100147.41;8834173;32;20182;-72
2020/12/01 08:09:46;;;;;;;29.77;12.10;;;;;;;5.93;89.28;100139.88;8833493;32;20309;-72
2020/12/01 08:14:51;;;;;;;34.92;12.23;;;;;;;5.92;89.23;100142.56;8837674;32;20262;-72
2020/12/01 08:19:54;;;;;;;25.23;11.85;;;;;;;5.98;89.06;100144.94;8834014;32;20255;-72
2020/12/01 08:25:01;;;;;;;32.90;13.13;;;;;;;6.07;89.24;100155.06;8834364;32;20238;-72
2020/12/01 08:30:09;;;;;;;31.88;13.55;;;;;;;6.10;89.43;100146.94;8834364;32;20221;-73
2020/12/01 08:35:22;;;;;;;28.25;12.13;;;;;;;6.11;89.30;100159.25;8832421;32;20231;-72
2020/12/01 08:40:33;;;;;;;30.15;12.10;;;;;;;6.17;89.33;100166.94;8834746;32;20290;-72
2020/12/01 08:45:47;;;;;;;29.02;12.38;;;;;;;6.27;89.37;100171.75;8834888;32;21645;-72
2020/12/01 08:51:01;;;;;;;29.48;13.27;;;;;;;6.30;89.19;100174.22;8838992;32;20149;-72
2020/12/01 08:56:04;;;;;;;23.08;11.73;;;;;;;6.25;89.13;100185.06;8838957;32;20173;-72
2020/12/01 09:01:10;;;;;;;23.52;10.70;;;;;;;6.33;88.95;100190.84;8837752;32;20691;-72
2020/12/01 09:06:26;;;;;;;26.90;11.05;;;;;;;6.34;89.01;100189.06;8838395;32;20182;-73
2020/12/01 09:11:57;;;;;;;28.88;12.38;;;;;;;6.38;89.15;100195.91;8838212;32;20445;-72
2020/12/01 09:17:16;;;;;;;26.63;11.23;;;;;;;6.37;89.33;100199.50;8837778;32;20543;-72
2020/12/01 09:22:26;;;;;;;26.65;12.05;;;;;;;6.38;89.10;100203.88;8837187;32;20142;-72
2020/12/01 09:27:33;;;;;;;25.33;11.85;;;;;;;6.31;88.91;100208.66;8836971;32;21508;-73
2020/12/01 09:32:36;;;;;;;23.27;11.50;;;;;;;6.32;89.12;100207.72;8836754;32;20190;-72
2020/12/01 09:37:39;;;;;;;23.08;10.63;;;;;;;6.40;89.12;100215.28;8837025;32;20192;-72
2020/12/01 09:42:44;;;;;;;24.10;11.13;;;;;;;6.44;89.06;100222.13;8837479;32;20439;-72
2020/12/01 09:47:50;;;;;;;23.48;11.43;;;;;;;6.40;88.98;100226.75;8836873;32;20193;-73
2020/12/01 09:53:13;;;;;;;27.42;12.23;;;;;;;6.48;89.15;100223.69;8837027;32;21034;-73
2020/12/01 09:58:31;;;;;;;30.17;12.50;;;;;;;6.46;89.15;100231.72;8836037;32;20640;-73
2020/12/01 10:08:57;;;;;;;22.27;11.02;;;;;;;6.41;88.96;100227.59;8837121;32;20142;-73
2020/12/01 10:14:07;;;;;;;23.67;11.30;;;;;;;6.43;88.89;100231.88;8836873;32;21518;-73
2020/12/01 10:19:45;;;;;;;23.75;11.43;;;;;;;6.44;88.81;100228.31;8836277;32;20185;-73
2020/12/01 10:25:35;;;;;;;25.08;12.35;;;;;;;6.45;88.78;100237.97;8837346;32;20185;-73
2020/12/01 10:36:05;;;;;;;24.42;10.95;;;;;;;6.59;88.85;100225.78;8840530;32;20543;-73
2020/12/01 10:41:08;;;;;;;27.50;11.85;;;;;;;6.74;89.10;100229.41;8895968;32;21323;-73
2020/12/01 10:46:10;;;;;;;23.83;11.40;;;;;;;6.72;88.78;100228.63;8895512;32;20251;-73
2020/12/01 10:51:13;;;;;;;26.75;11.77;;;;;;;6.78;88.75;100231.81;8894766;32;20694;-73
2020/12/01 10:56:16;;;;;;;21.83;10.80;;;;;;;6.79;88.69;100232.69;8895300;32;20919;-72
2020/12/01 11:01:18;;;;;;;32.20;12.73;;;;;;;6.84;88.76;100230.63;8894775;32;20208;-73
2020/12/01 11:06:21;;;;;;;27.48;11.85;;;;;;;6.93;88.75;100231.94;8895204;32;20507;-71
2020/12/01 11:11:24;;;;;;;25.75;12.63;;;;;;;7.04;88.61;100237.53;8896541;32;20464;-72
2020/12/01 11:16:26;;;;;;;22.38;10.55;;;;;;;7.04;88.41;100243.69;8897511;32;20589;-72
2020/12/01 11:21:29;;;;;;;26.83;12.93;;;;;;;7.13;88.59;100242.34;8899284;32;20189;-72
2020/12/01 11:26:32;;;;;;;25.27;12.02;;;;;;;7.21;88.49;100248.06;8895287;32;20185;-72
2020/12/01 11:31:35;;;;;;;21.90;10.75;;;;;;;7.22;88.79;100248.94;8894882;32;20291;-72
2020/12/01 11:36:40;;;;;;;25.30;11.48;;;;;;;7.27;88.46;100247.75;8894397;32;20141;-72
2020/12/01 11:41:42;;;;;;;20.08;10.00;;;;;;;7.28;88.54;100253.91;8893782;32;20198;-72
2020/12/01 11:46:45;;;;;;;25.17;11.15;;;;;;;7.36;88.63;100254.34;8892208;32;20341;-72
2020/12/01 11:51:49;;;;;;;21.30;10.30;;;;;;;7.34;88.46;100267.72;8892655;32;20177;-72
2020/12/01 11:56:51;;;;;;;21.83;9.32;;;;;;;7.35;88.68;100279.22;8834645;32;20285;-72
2020/12/01 12:01:53;;;;;;;20.20;11.10;;;;;;;7.39;88.62;100285.22;8832872;32;20182;-72
2020/12/01 12:06:56;;;;;;;21.27;10.60;;;;;;;7.45;88.65;100292.84;8832029;32;20843;-73
2020/12/01 12:11:59;;;;;;;17.33;8.77;;;;;;;7.44;89.02;100293.81;8830243;32;20194;-73
2020/12/01 12:17:01;;;;;;;18.23;9.40;;;;;;;7.42;88.80;100295.69;8831269;32;20320;-72
2020/12/01 12:22:04;;;;;;;19.55;9.75;;;;;;;7.46;88.71;100298.09;8835063;32;20147;-73
2020/12/01 12:27:06;;;;;;;22.52;10.88;;;;;;;7.41;88.55;100304.63;8836771;32;20181;-73
2020/12/01 12:32:08;;;;;;;21.17;10.77;;;;;;;7.41;88.70;100301.94;8837361;32;20216;-72
2020/12/01 12:37:11;;;;;;;22.20;11.00;;;;;;;7.44;88.85;100313.25;8836405;32;20436;-74
2020/12/01 12:42:14;;;;;;;28.23;14.00;;;;;;;7.53;89.16;100318.06;8835989;32;21216;-72
2020/12/01 12:47:16;;;;;;;24.55;11.00;;;;;;;7.52;88.66;100319.03;8835765;32;20174;-73
2020/12/01 12:52:19;;;;;;;23.75;11.93;;;;;;;7.45;88.62;100324.75;8836036;32;20183;-72
2020/12/01 12:57:21;;;;;;;26.48;13.27;;;;;;;7.47;88.76;100328.19;8835554;32;20181;-73
2020/12/01 13:02:23;;;;;;;22.95;12.70;;;;;;;7.37;88.82;100332.28;8836467;32;20216;-73
2020/12/01 13:07:26;;;;;;;28.70;13.50;;;;;;;7.30;88.84;100342.41;8836398;32;20436;-74
2020/12/01 13:12:29;;;;;;;29.67;14.95;;;;;;;7.26;89.00;100346.16;8836197;32;20292;-74
2020/12/01 13:17:31;;;;;;;27.80;13.93;;;;;;;7.26;89.25;100352.31;8835266;32;20147;-74
2020/12/01 13:22:34;;;;;;;23.60;12.43;;;;;;;7.15;89.12;100357.34;8835969;32;20608;-74
2020/12/01 13:27:36;;;;;;;27.70;13.43;;;;;;;7.14;89.26;100371.59;8834867;32;20190;-74
2020/12/01 13:32:38;;;;;;;29.67;14.00;;;;;;;7.13;89.35;100367.22;8834818;32;20255;-74
2020/12/01 13:37:42;;;;;;;29.73;15.10;;;;;;;7.09;89.46;100365.66;8835101;32;20324;-74
2020/12/01 13:42:45;;;;;;;25.30;12.90;;;;;;;7.13;89.14;100378.69;8834903;32;20150;-74
2020/12/01 13:47:48;;;;;;;22.70;12.00;;;;;;;6.96;89.06;100375.19;8834971;32;20184;-75
2020/12/01 13:52:51;;;;;;;27.48;14.13;;;;;;;6.88;89.15;100395.06;8835032;32;22059;-75
2020/12/01 13:57:53;;;;;;;26.98;14.25;;;;;;;6.90;89.33;100385.19;8834755;32;20186;-74
2020/12/01 14:02:56;;;;;;;30.50;15.05;;;;;;;6.85;89.43;100397.00;8835472;32;20143;-74
2020/12/01 14:08:01;;;;;;;22.45;12.35;;;;;;;6.77;89.28;100407.16;8834702;32;20204;-74
2020/12/01 14:13:03;;;;;;;29.92;15.48;;;;;;;6.75;89.38;100406.38;8834350;32;21707;-74
2020/12/01 14:18:05;;;;;;;23.85;13.20;;;;;;;6.68;89.45;100419.94;8834104;32;20671;-74
2020/12/01 14:23:08;;;;;;;30.40;15.98;;;;;;;6.68;89.47;100424.41;8857399;32;20443;-74
2020/12/01 14:28:11;;;;;;;35.13;15.98;;;;;;;6.70;89.37;100427.84;8833997;32;20150;-74
2020/12/01 14:33:13;;;;;;;28.23;15.07;;;;;;;6.59;89.42;100432.84;8834344;32;20214;-74
2020/12/01 14:38:17;;;;;;;31.20;13.98;;;;;;;6.60;89.13;100443.38;8835846;32;20257;-73
2020/12/01 14:43:20;;;;;;;29.77;13.15;;;;;;;6.48;89.17;100448.44;8833041;32;20724;-73
2020/12/01 14:48:43;;;;;;;29.00;15.15;;;;;;;6.44;89.06;100448.59;8833560;32;20250;-73
2020/12/01 14:53:57;;;;;;;34.58;15.70;;;;;;;6.41;89.16;100456.69;8833489;32;20611;-73
2020/12/01 14:59:46;;;;;;;40.08;15.60;;;;;;;6.38;89.32;100455.97;8832812;32;20193;-73
2020/12/01 15:05:17;;;;;;;37.20;15.65;;;;;;;6.36;89.28;100477.28;8651443;33;20144;-73
2020/12/01 15:10:26;;;;;;;40.47;16.77;;;;;;;6.31;89.19;100486.38;8814904;32;20448;-73
2020/12/01 15:15:33;;;;;;;35.70;16.00;;;;;;;6.15;89.36;100495.06;8833126;32;20506;-73
2020/12/01 15:20:40;;;;;;;31.13;14.73;;;;;;;6.14;89.56;100501.34;8833536;32;20178;-73
2020/12/01 15:25:47;;;;;;;36.75;17.55;;;;;;;6.20;89.34;100505.50;8833413;32;20236;-73
2020/12/01 15:30:49;;;;;;;32.67;15.82;;;;;;;6.19;89.35;100511.69;8832509;32;20185;-73
2020/12/01 15:36:00;;;;;;;32.38;15.45;;;;;;;6.16;89.24;100523.31;8832208;32;20322;-73
2020/12/01 15:41:08;;;;;;;36.13;15.25;;;;;;;6.06;89.20;100522.03;8831801;32;20177;-73
2020/12/01 15:46:14;;;;;;;29.90;15.15;;;;;;;6.03;89.19;100527.47;8832013;32;20199;-72
2020/12/01 15:51:32;;;;;;;34.88;15.13;;;;;;;6.04;89.24;100533.66;8833520;32;20184;-73
2020/12/01 15:57:06;;;;;;;37.97;14.32;;;;;;;6.05;89.22;100540.66;8834900;32;20639;-72
2020/12/01 16:02:33;;;;;;;34.67;15.57;;;;;;;6.06;89.23;100561.84;8837565;32;20186;-73
2020/12/01 16:08:12;;;;;;;35.03;15.25;;;;;;;6.00;89.39;100570.03;8837142;32;20630;-72
2020/12/01 16:13:39;;;;;;;36.42;15.25;;;;;;;5.93;89.17;100572.13;8837561;32;20215;-72
2020/12/01 16:18:55;;;;;;;28.98;13.77;;;;;;;5.97;89.15;100572.84;8871733;32;20402;-72
2020/12/01 16:24:01;;;;;;;31.42;14.48;;;;;;;5.99;89.23;100581.59;8897176;32;20180;-72
2020/12/01 16:29:52;;;;;;;31.98;14.40;;;;;;;5.98;89.16;100590.50;8897738;32;20301;-73
2020/12/01 16:34:58;;;;;;;32.17;14.00;;;;;;;6.03;89.25;100595.56;8898065;32;20249;-73
2020/12/01 16:40:12;;;;;;;33.30;14.15;;;;;;;6.00;89.21;100596.56;8898422;32;20535;-72
2020/12/01 16:45:29;;;;;;;32.45;13.55;;;;;;;5.94;89.14;100600.34;8900293;32;21118;-72
2020/12/01 16:50:43;;;;;;;35.13;15.15;;;;;;;5.93;89.08;100605.72;8897005;32;20691;-72
2020/12/01 16:55:55;;;;;;;32.40;14.82;;;;;;;5.90;89.13;100616.44;8896135;32;22375;-72
2020/12/01 17:01:21;;;;;;;32.67;14.60;;;;;;;5.84;89.00;100619.34;8896836;32;20256;-73
2020/12/01 17:07:04;;;;;;;36.30;16.13;;;;;;;5.82;89.14;100627.38;8895583;32;21017;-72
2020/12/01 17:13:11;;;;;;;39.35;16.10;;;;;;;5.83;89.08;100644.16;8896301;32;20267;-72
2020/12/01 17:18:14;;;;;;;44.13;20.55;;;;;;;5.83;89.11;100657.41;8883578;32;20664;-72
2020/12/01 17:23:19;;;;;;;33.35;14.82;;;;;;;5.88;89.05;100664.25;8895041;32;20189;-72
2020/12/01 17:28:25;;;;;;;37.40;15.10;;;;;;;5.77;88.95;100670.00;8894832;32;20267;-72
2020/12/01 17:33:49;;;;;;;38.20;16.25;;;;;;;5.75;89.10;100673.63;8894990;32;20221;-72
2020/12/01 17:39:01;;;;;;;29.10;14.00;;;;;;;5.74;88.97;100677.22;8894995;32;20582;-73
2020/12/01 17:44:21;;;;;;;31.38;15.35;;;;;;;5.73;89.06;100697.59;8894720;32;20257;-73
2020/12/01 17:49:39;;;;;;;33.20;14.63;;;;;;;5.72;89.09;100690.53;8877679;32;20285;-73
2020/12/01 17:54:41;;;;;;;38.28;15.00;;;;;;;5.67;89.06;100710.22;8855818;32;20195;-73
2020/12/01 17:59:47;;;;;;;32.63;15.88;;;;;;;5.71;88.93;100707.38;8893609;32;20134;-73
2020/12/01 18:04:51;;;;;;;38.85;17.45;;;;;;;5.71;89.29;100720.63;8873951;32;20540;-73
2020/12/01 18:09:54;;;;;;;43.55;17.27;;;;;;;5.70;89.29;100721.53;8833645;33;20430;-73
2020/12/01 18:15:09;;;;;;;40.95;16.23;;;;;;;5.68;88.66;100726.06;8833407;33;20226;-73
2020/12/01 18:20:24;;;;;;;39.80;17.85;;;;;;;5.65;88.93;100738.56;8832951;33;20131;-73
2020/12/01 18:25:36;;;;;;;39.40;16.52;;;;;;;5.66;88.81;100738.50;8832905;33;20181;-73
2020/12/01 18:30:39;;;;;;;43.13;16.35;;;;;;;5.68;88.84;100749.94;8832328;33;20162;-73
2020/12/01 18:35:46;;;;;;;37.25;14.40;;;;;;;5.66;88.78;100766.81;8832716;33;20178;-73
2020/12/01 18:40:49;;;;;;;35.27;14.37;;;;;;;5.70;88.79;100779.00;8832471;33;20186;-73
2020/12/01 18:45:54;;;;;;;46.35;16.40;;;;;;;5.66;88.54;100772.97;8832186;33;20223;-73
2020/12/01 18:50:58;;;;;;;41.20;15.67;;;;;;;5.64;88.98;100777.47;8834904;33;20177;-73
2020/12/01 18:56:02;;;;;;;34.30;15.85;;;;;;;5.55;88.57;100788.44;8832386;33;20963;-75
2020/12/01 19:01:10;;;;;;;35.13;15.05;;;;;;;5.57;88.87;100789.25;8832703;33;20593;-72
2020/12/01 19:06:17;;;;;;;37.77;15.40;;;;;;;5.57;88.63;100799.88;8786423;33;21666;-73
2020/12/01 19:11:21;;;;;;;43.05;18.25;;;;;;;5.58;88.53;100796.28;8773751;33;20776;-73
2020/12/01 19:16:25;;;;;;;27.83;13.88;;;;;;;5.51;88.89;100803.63;8791271;32;20682;-73
2020/12/01 19:21:28;;;;;;;35.85;15.05;;;;;;;5.50;88.79;100807.19;8832392;32;20471;-73
2020/12/01 19:26:31;;;;;;;28.35;14.20;;;;;;;5.52;89.17;100821.25;8831572;32;20238;-73
2020/12/01 19:31:33;;;;;;;31.92;14.32;;;;;;;5.50;88.68;100824.88;8831709;32;20186;-73
2020/12/01 19:36:36;;;;;;;37.00;15.45;;;;;;;5.44;88.80;100833.06;8831358;32;20143;-73
2020/12/01 19:41:38;;;;;;;34.35;15.80;;;;;;;5.47;88.78;100844.41;8832133;32;20233;-73
2020/12/01 19:46:41;;;;;;;35.42;14.50;;;;;;;5.48;88.86;100859.38;8834162;32;20153;-73
2020/12/01 19:51:47;;;;;;;33.35;16.23;;;;;;;5.41;88.61;100849.09;8831649;32;20197;-73
2020/12/01 19:56:49;;;;;;;32.30;14.63;;;;;;;5.43;88.73;100868.41;8831166;32;20216;-73
2020/12/01 20:01:52;;;;;;;37.15;15.50;;;;;;;5.42;88.53;100867.56;8831376;32;20193;-73
2020/12/01 20:06:56;;;;;;;32.83;14.07;;;;;;;5.46;88.72;100876.28;8831308;32;20936;-73
2020/12/01 20:11:59;;;;;;;34.05;14.65;;;;;;;5.46;88.71;100877.13;8831467;32;20156;-74
2020/12/01 20:17:01;;;;;;;30.35;14.55;;;;;;;5.47;88.82;100880.66;8830044;32;20182;-73
2020/12/01 20:22:05;;;;;;;35.47;15.30;;;;;;;5.43;88.55;100886.97;8830233;32;20186;-73
2020/12/01 20:27:07;;;;;;;32.90;14.17;;;;;;;5.44;88.90;100886.06;8830236;32;20611;-74
2020/12/01 20:32:13;;;;;;;36.35;14.50;;;;;;;5.46;88.75;100890.41;8831653;32;20182;-73
2020/12/01 20:38:10;;;;;;;34.25;15.70;;;;;;;5.49;88.93;100897.38;8831520;32;20258;-73
2020/12/01 20:43:17;;;;;;;35.83;14.07;;;;;;;5.48;88.82;100898.25;8833996;32;20498;-73
2020/12/01 20:48:22;;;;;;;31.08;13.93;;;;;;;5.53;88.91;100901.63;8848849;32;20616;-72
2020/12/01 20:53:25;;;;;;;34.63;14.52;;;;;;;5.58;88.68;100902.31;8842755;32;20212;-72
2020/12/01 20:58:28;;;;;;;39.53;13.90;;;;;;;5.55;88.70;100910.38;8835806;33;20193;-75
2020/12/01 21:03:30;;;;;;;31.80;15.05;;;;;;;5.54;88.70;100903.38;8835674;33;20166;-74
2020/12/01 21:08:33;;;;;;;34.20;14.27;;;;;;;5.53;88.74;100901.63;8834279;33;20190;-74
2020/12/01 21:13:44;;;;;;;26.77;13.25;;;;;;;5.54;88.77;100921.91;8830610;33;20182;-73
2020/12/01 21:18:47;;;;;;;35.28;15.38;;;;;;;5.53;88.65;100915.72;8833831;33;21045;-74
2020/12/01 21:23:49;;;;;;;36.38;14.88;;;;;;;5.51;88.65;100914.06;8834233;33;20213;-74
2020/12/01 21:28:57;;;;;;;38.97;14.13;;;;;;;5.52;88.70;100921.09;8833391;33;20209;-74
2020/12/01 21:34:04;;;;;;;30.85;12.70;;;;;;;5.53;88.66;100934.28;8835148;33;20253;-75
2020/12/01 21:39:14;;;;;;;28.55;11.82;;;;;;;5.53;88.48;100930.75;8835905;33;20643;-74
2020/12/01 21:44:29;;;;;;;33.00;13.52;;;;;;;5.51;88.75;100933.50;8810947;33;20223;-74
2020/12/01 21:49:31;;;;;;;34.22;14.80;;;;;;;5.56;88.79;100936.81;8835944;33;20797;-74
2020/12/01 21:54:52;;;;;;;31.15;12.98;;;;;;;5.57;88.74;100930.59;8834861;33;22196;-73
2020/12/01 22:00:20;;;;;;;30.23;14.40;;;;;;;5.55;88.55;100927.16;8833725;33;20757;-74
2020/12/01 22:05:37;;;;;;;25.33;14.68;;;;;;;5.54;88.66;100933.38;8834045;33;20700;-74
2020/12/01 22:10:46;;;;;;;36.72;14.77;;;;;;;5.57;88.72;100932.41;8833972;33;20226;-74
2020/12/01 22:15:52;;;;;;;31.15;15.15;;;;;;;5.61;88.80;100951.69;8834126;33;20308;-74
2020/12/01 22:21:09;;;;;;;32.97;14.55;;;;;;;5.61;88.79;100947.25;8833412;33;20294;-74
2020/12/01 22:26:18;;;;;;;33.92;14.15;;;;;;;5.64;88.78;100954.22;8833524;33;20846;-74
2020/12/01 22:31:57;;;;;;;39.30;15.43;;;;;;;5.67;88.74;100954.09;8833319;33;20185;-74
2020/12/01 22:37:00;;;;;;;31.95;13.10;;;;;;;5.66;88.64;100963.84;8893180;32;20893;-74
2020/12/01 22:42:11;;;;;;;31.65;13.43;;;;;;;5.65;88.75;100970.09;8893912;32;20242;-74
2020/12/01 22:47:46;;;;;;;32.13;15.45;;;;;;;5.65;88.83;100967.44;8894338;32;20154;-74
2020/12/01 22:53:31;;;;;;;32.70;13.45;;;;;;;5.67;88.65;100970.00;8858013;32;20631;-74
2020/12/01 22:58:34;;;;;;;34.13;13.77;;;;;;;5.70;88.72;100976.06;8892649;32;20218;-74
2020/12/01 23:03:40;;;;;;;32.38;15.18;;;;;;;5.73;88.65;100975.97;8894236;32;20238;-74
2020/12/01 23:08:50;;;;;;;34.42;15.50;;;;;;;5.78;88.82;100983.72;8893422;32;20122;-74
2020/12/01 23:14:02;;;;;;;35.67;15.80;;;;;;;5.83;88.79;100975.63;8893861;32;21751;-74
2020/12/01 23:19:11;;;;;;;38.75;17.17;;;;;;;6.10;87.87;100987.84;8892737;32;21127;-74
2020/12/01 23:24:14;;;;;;;34.15;15.68;;;;;;;6.13;87.63;100987.72;8893032;32;20181;-74
2020/12/01 23:29:25;;;;;;;32.00;12.20;;;;;;;6.11;87.58;100986.06;8892572;32;20213;-74
2020/12/01 23:34:28;;;;;;;28.98;12.60;;;;;;;5.92;88.00;100997.34;8892879;32;20153;-74
2020/12/01 23:39:31;;;;;;;30.48;11.77;;;;;;;5.84;88.55;100987.94;8892738;32;20230;-73
2020/12/01 23:44:42;;;;;;;31.38;14.40;;;;;;;5.87;88.58;100977.22;8893519;32;20719;-73
2020/12/01 23:49:52;;;;;;;27.35;12.93;;;;;;;5.88;88.84;100990.44;8869336;32;21117;-74
2020/12/01 23:54:54;;;;;;;33.63;16.13;;;;;;;5.83;88.86;100991.53;8894085;32;20195;-74